Time;durP1;ratioP1;P1;durP2;ratioP2;P2;SDS_P1;SDS_P2;PMS_P1;PMS_P2;Temp;Humidity;BMP_temperature;BMP_pressure;BME280_temperature;BME280_humidity;BME280_pressure;Samples;Min_cycle;Max_cycle;Signal;HPM_P1;HPM_P2
2023/06/26 00:00:19;;;;;;;21.70;19.47;;;;;;;19.69;100.00;101023.00;4943324;29;20477;-66
2023/06/26 00:02:49;;;;;;;19.27;17.47;;;;;;;19.78;100.00;101030.50;4939941;29;21090;-67
2023/06/26 00:05:18;;;;;;;19.60;17.50;;;;;;;19.73;100.00;101021.41;4941250;29;20507;-67
2023/06/26 00:07:47;;;;;;;18.63;16.73;;;;;;;19.62;100.00;101022.38;4951489;29;20991;-67
2023/06/26 00:10:16;;;;;;;18.47;16.57;;;;;;;19.52;100.00;101023.91;4936577;29;20435;-67
2023/06/26 00:12:46;;;;;;;18.37;16.57;;;;;;;19.45;100.00;101017.81;4942448;29;20690;-68
2023/06/26 00:15:16;;;;;;;19.50;17.60;;;;;;;19.38;100.00;101013.56;5096547;23;20566;-66
2023/06/26 00:17:45;;;;;;;22.23;19.83;;;;;;;19.34;100.00;101026.97;4939485;29;20531;-66
2023/06/26 00:20:16;;;;;;;20.07;18.03;;;;;;;19.33;100.00;101022.56;4937841;29;20446;-65
2023/06/26 00:22:46;;;;;;;18.73;16.93;;;;;;;19.36;100.00;101019.34;4937582;29;20937;-65
2023/06/26 00:25:15;;;;;;;19.67;17.47;;;;;;;19.33;100.00;101025.31;4945036;29;20414;-66
2023/06/26 00:27:45;;;;;;;18.30;16.40;;;;;;;19.34;100.00;101013.25;4942078;29;21016;-63
2023/06/26 00:30:14;;;;;;;17.90;16.10;;;;;;;19.31;100.00;101010.22;4944190;29;20410;-67
2023/06/26 00:32:43;;;;;;;17.90;16.20;;;;;;;19.26;100.00;101013.72;4935164;29;20602;-68
2023/06/26 00:35:13;;;;;;;19.33;17.43;;;;;;;19.26;100.00;101013.72;4947570;29;20442;-67
2023/06/26 00:37:42;;;;;;;20.17;17.50;;;;;;;19.22;100.00;101014.50;4946063;28;20525;-68
2023/06/26 00:40:11;;;;;;;19.73;17.63;;;;;;;19.24;100.00;101015.06;4947073;29;20438;-68
2023/06/26 00:42:40;;;;;;;18.90;17.00;;;;;;;19.25;100.00;101012.06;4956237;28;20874;-67
2023/06/26 00:45:11;;;;;;;19.47;17.47;;;;;;;19.26;100.00;101011.00;4942299;29;20532;-67
2023/06/26 00:47:40;;;;;;;17.70;16.07;;;;;;;19.30;100.00;101003.91;4939088;29;20435;-65
2023/06/26 00:50:10;;;;;;;19.37;16.60;;;;;;;19.35;100.00;101006.69;4936669;29;20506;-66
2023/06/26 00:52:39;;;;;;;19.13;17.17;;;;;;;19.39;100.00;101007.84;4938762;29;20430;-66
2023/06/26 00:55:09;;;;;;;20.90;18.90;;;;;;;19.43;100.00;101002.66;4934548;29;20569;-65
2023/06/26 00:57:38;;;;;;;17.17;15.47;;;;;;;19.47;100.00;101004.66;4939238;29;20543;-65
2023/06/26 01:00:10;;;;;;;23.60;16.50;;;;;;;19.52;100.00;101007.44;4934443;29;20442;-67
2023/06/26 01:02:39;;;;;;;18.77;16.97;;;;;;;19.60;100.00;100999.84;4935819;29;20429;-65
2023/06/26 01:05:12;;;;;;;19.93;17.77;;;;;;;19.71;100.00;101001.59;4934776;29;20411;-66
2023/06/26 01:07:42;;;;;;;17.53;15.83;;;;;;;19.76;100.00;101004.38;4934568;29;21119;-66
2023/06/26 01:10:11;;;;;;;17.10;15.07;;;;;;;19.81;100.00;101002.53;4940958;29;20829;-65
2023/06/26 01:12:41;;;;;;;19.77;17.67;;;;;;;19.87;100.00;100996.00;4941766;29;20754;-64
2023/06/26 01:15:12;;;;;;;16.97;15.37;;;;;;;19.95;100.00;100994.66;4945988;29;20437;-67
2023/06/26 01:17:48;;;;;;;17.37;15.40;;;;;;;19.94;100.00;100993.03;4940241;29;20879;-67
2023/06/26 01:20:18;;;;;;;18.97;17.03;;;;;;;20.00;100.00;100996.63;4931635;29;20436;-65
2023/06/26 01:23:04;;;;;;;18.83;16.83;;;;;;;20.05;100.00;100983.78;4941160;29;20415;-66
2023/06/26 01:25:43;;;;;;;17.27;15.50;;;;;;;20.13;100.00;100986.06;4939007;29;20914;-67
2023/06/26 01:28:16;;;;;;;18.83;16.93;;;;;;;20.11;100.00;100984.66;4949712;29;20522;-65
2023/06/26 01:30:48;;;;;;;19.23;17.03;;;;;;;20.06;100.00;100985.44;4937627;29;20403;-66
2023/06/26 01:33:17;;;;;;;19.10;17.10;;;;;;;20.03;100.00;100985.97;4940181;29;20439;-64
2023/06/26 01:35:46;;;;;;;18.60;16.80;;;;;;;20.01;100.00;100981.81;4935703;29;20500;-64
2023/06/26 01:38:16;;;;;;;17.70;15.83;;;;;;;20.00;100.00;100980.97;4933263;29;20914;-66
2023/06/26 01:40:46;;;;;;;17.10;15.30;;;;;;;19.96;100.00;100977.94;4937306;29;20560;-64
2023/06/26 01:43:25;;;;;;;19.60;17.57;;;;;;;19.96;100.00;100974.38;4933772;29;20810;-65
2023/06/26 01:45:59;;;;;;;17.20;15.60;;;;;;;19.94;100.00;100977.38;4925667;29;20413;-66
2023/06/26 01:48:43;;;;;;;18.07;16.17;;;;;;;19.94;100.00;100977.38;4932402;29;20849;-68
2023/06/26 01:51:14;;;;;;;17.70;15.93;;;;;;;19.93;100.00;100975.72;4937282;29;20407;-66
2023/06/26 01:53:47;;;;;;;18.27;15.93;;;;;;;20.02;100.00;100967.00;4939502;28;20427;-66
2023/06/26 01:56:19;;;;;;;18.90;17.23;;;;;;;20.12;100.00;100967.91;4935768;29;20999;-67
2023/06/26 01:58:53;;;;;;;19.03;16.93;;;;;;;20.06;100.00;100968.13;4934670;29;20790;-67
2023/06/26 02:01:22;;;;;;;17.37;15.77;;;;;;;20.05;100.00;100967.28;4939657;29;20829;-66
2023/06/26 02:03:53;;;;;;;19.20;17.23;;;;;;;19.98;100.00;100961.22;4932600;29;20415;-67
2023/06/26 02:06:22;;;;;;;18.87;17.17;;;;;;;19.93;100.00;100964.75;4932776;29;20435;-66
2023/06/26 02:08:52;;;;;;;19.17;16.80;;;;;;;19.92;100.00;100962.25;4935552;29;20782;-68
2023/06/26 02:11:21;;;;;;;17.63;16.03;;;;;;;19.91;100.00;100960.59;4933321;29;20523;-67
2023/06/26 02:13:52;;;;;;;19.63;15.97;;;;;;;19.90;100.00;100956.19;4933102;29;20859;-68
2023/06/26 02:16:21;;;;;;;19.30;17.30;;;;;;;19.96;100.00;100964.22;4937285;29;20899;-65
2023/06/26 02:18:50;;;;;;;18.50;16.43;;;;;;;20.07;100.00;100958.78;4937719;29;20453;-68
2023/06/26 02:21:19;;;;;;;19.13;17.03;;;;;;;20.05;100.00;100952.72;4935175;29;20467;-68
2023/06/26 02:23:48;;;;;;;17.70;15.93;;;;;;;20.00;100.00;100959.00;4934222;28;20433;-68
2023/06/26 02:26:18;;;;;;;19.33;17.43;;;;;;;19.93;100.00;100956.50;4932021;29;20816;-67
2023/06/26 02:28:46;;;;;;;18.70;16.90;;;;;;;19.89;100.00;100952.63;4935013;29;20422;-66
2023/06/26 02:31:17;;;;;;;18.60;16.90;;;;;;;19.87;100.00;100954.78;4937506;29;20505;-68
2023/06/26 02:33:46;;;;;;;19.17;17.57;;;;;;;19.89;100.00;100957.28;4936257;29;20499;-64
2023/06/26 02:36:18;;;;;;;18.30;16.40;;;;;;;19.87;100.00;100959.47;4934321;29;20464;-67
2023/06/26 02:38:47;;;;;;;18.13;16.40;;;;;;;19.83;100.00;100961.91;4937005;29;20462;-65
2023/06/26 02:41:16;;;;;;;20.77;17.60;;;;;;;19.80;100.00;100956.13;4933403;29;20530;-66
2023/06/26 02:43:45;;;;;;;18.93;16.93;;;;;;;19.82;100.00;100956.66;4932747;29;20411;-65
2023/06/26 02:46:14;;;;;;;19.00;17.20;;;;;;;19.80;100.00;100954.19;4937298;29;20454;-65
2023/06/26 02:48:44;;;;;;;18.57;16.87;;;;;;;19.74;100.00;100948.91;4938230;29;20443;-65
2023/06/26 02:51:13;;;;;;;20.37;18.57;;;;;;;19.80;100.00;100947.88;4943623;29;20952;-66
2023/06/26 02:53:42;;;;;;;21.43;19.40;;;;;;;19.81;100.00;100955.00;4939435;28;20443;-67
2023/06/26 02:56:11;;;;;;;21.07;19.17;;;;;;;19.77;100.00;100949.22;4931998;29;20471;-66
2023/06/26 02:58:40;;;;;;;18.37;16.60;;;;;;;19.71;100.00;100949.44;4929307;29;20476;-65
2023/06/26 03:01:09;;;;;;;18.47;16.77;;;;;;;19.65;100.00;100945.00;4934305;29;20415;-65
2023/06/26 03:03:41;;;;;;;21.37;19.27;;;;;;;19.61;100.00;100943.84;4933310;29;20447;-65
2023/06/26 03:06:17;;;;;;;19.77;17.77;;;;;;;19.56;100.00;100935.59;4943387;28;20460;-66
2023/06/26 03:08:46;;;;;;;21.37;17.10;;;;;;;19.49;100.00;100931.13;4942244;29;20450;-65
2023/06/26 03:11:16;;;;;;;21.27;19.17;;;;;;;19.49;100.00;100935.78;4937806;29;20518;-65
2023/06/26 03:13:47;;;;;;;22.70;18.60;;;;;;;19.47;100.00;100933.28;4931241;29;20504;-64
2023/06/26 03:16:16;;;;;;;20.80;18.90;;;;;;;19.44;100.00;100922.84;4941515;29;20454;-66
2023/06/26 03:18:44;;;;;;;22.33;19.93;;;;;;;19.46;100.00;100928.09;4941595;29;20848;-66
2023/06/26 03:21:15;;;;;;;23.23;20.83;;;;;;;19.50;100.00;100924.56;4942925;28;20468;-66
2023/06/26 03:23:44;;;;;;;23.33;21.10;;;;;;;19.61;100.00;100932.84;4932972;29;20434;-67
2023/06/26 03:26:14;;;;;;;22.63;20.33;;;;;;;19.71;100.00;100927.47;4937612;29;20460;-67
2023/06/26 03:28:44;;;;;;;21.17;19.27;;;;;;;19.75;100.00;100926.69;4937173;29;20935;-67
2023/06/26 03:31:13;;;;;;;22.10;19.87;;;;;;;19.77;100.00;100938.25;4931925;29;20443;-67
2023/06/26 03:33:42;;;;;;;21.33;19.43;;;;;;;19.79;100.00;100929.75;4937305;29;20429;-67
2023/06/26 03:36:11;;;;;;;21.40;19.40;;;;;;;19.88;100.00;100933.66;4943333;28;20504;-67
2023/06/26 03:38:43;;;;;;;21.60;19.33;;;;;;;19.95;100.00;100928.75;4941504;29;20469;-68
2023/06/26 03:41:13;;;;;;;20.80;18.87;;;;;;;20.02;100.00;100921.13;4937867;29;20470;-68
2023/06/26 03:43:43;;;;;;;22.00;19.97;;;;;;;20.08;100.00;100928.31;4937321;28;20455;-65
2023/06/26 03:46:17;;;;;;;21.90;19.57;;;;;;;20.18;100.00;100922.91;4940105;29;20468;-67
2023/06/26 03:48:48;;;;;;;19.90;18.10;;;;;;;20.34;100.00;100916.41;4936822;29;20433;-65
2023/06/26 03:51:17;;;;;;;22.40;20.30;;;;;;;20.54;100.00;100917.63;4938478;29;20403;-68
2023/06/26 03:53:47;;;;;;;20.53;18.63;;;;;;;20.74;99.73;100920.47;4938383;29;20973;-65
2023/06/26 03:56:16;;;;;;;20.37;18.47;;;;;;;20.96;99.33;100923.84;4934232;29;20476;-67
2023/06/26 03:58:45;;;;;;;22.80;20.60;;;;;;;21.91;95.12;100918.78;4941214;29;20542;-66
2023/06/26 04:01:14;;;;;;;19.47;17.57;;;;;;;23.38;84.09;100921.88;4936887;29;20436;-66
2023/06/26 04:03:44;;;;;;;20.57;18.70;;;;;;;24.59;73.22;100926.31;4943618;29;20453;-66
2023/06/26 04:06:14;;;;;;;17.80;16.10;;;;;;;25.37;70.99;100927.81;4941679;29;20441;-66
2023/06/26 04:08:42;;;;;;;18.17;16.50;;;;;;;26.16;67.47;100925.97;4945862;29;20980;-65
2023/06/26 04:11:13;;;;;;;17.17;15.67;;;;;;;26.73;64.24;100930.16;4940814;29;20454;-67
2023/06/26 04:13:42;;;;;;;22.23;17.90;;;;;;;27.00;62.60;100926.56;4937621;29;20403;-66
2023/06/26 04:16:11;;;;;;;19.53;17.83;;;;;;;27.45;61.29;100925.53;4936455;29;20468;-66
2023/06/26 04:18:40;;;;;;;17.70;16.10;;;;;;;27.73;60.31;100923.50;4936514;29;20432;-66
2023/06/26 04:21:12;;;;;;;19.57;17.73;;;;;;;27.72;60.05;100929.38;4936045;29;20421;-68
2023/06/26 04:23:41;;;;;;;18.90;16.50;;;;;;;27.51;60.01;100924.31;4942106;29;20526;-65
2023/06/26 04:26:14;;;;;;;17.37;15.77;;;;;;;28.22;57.63;100921.72;4933493;29;20546;-67
2023/06/26 04:28:44;;;;;;;16.67;15.13;;;;;;;28.68;55.62;100927.63;4934784;29;20479;-67
2023/06/26 04:31:13;;;;;;;17.40;15.90;;;;;;;29.01;53.71;100924.47;4934864;29;20414;-66
2023/06/26 04:33:42;;;;;;;16.23;14.83;;;;;;;29.03;53.31;100919.41;4936388;29;20421;-68
2023/06/26 04:36:11;;;;;;;15.37;13.87;;;;;;;29.10;53.25;100917.75;4946071;28;20474;-67
2023/06/26 04:38:40;;;;;;;16.53;15.03;;;;;;;29.36;50.43;100920.59;4937126;29;20451;-69
2023/06/26 04:41:09;;;;;;;16.60;15.07;;;;;;;28.12;52.28;100914.47;4934846;29;20432;-66
2023/06/26 04:43:40;;;;;;;16.17;14.77;;;;;;;26.85;57.46;100919.38;4938922;29;20487;-67
2023/06/26 04:46:09;;;;;;;14.93;13.20;;;;;;;26.21;59.87;100918.41;4931733;29;20452;-67
2023/06/26 04:48:38;;;;;;;16.63;15.13;;;;;;;25.81;60.79;100919.94;4939058;29;20416;-67
2023/06/26 04:51:07;;;;;;;14.60;13.40;;;;;;;25.88;60.53;100911.22;4940500;29;20437;-68
2023/06/26 04:53:36;;;;;;;16.13;14.57;;;;;;;26.65;59.49;100917.84;4934262;29;20496;-69
2023/06/26 04:56:05;;;;;;;17.47;15.73;;;;;;;27.51;56.41;100912.34;4934587;29;20407;-67
2023/06/26 04:58:34;;;;;;;16.13;14.63;;;;;;;27.78;54.01;100911.44;4937423;29;20458;-67
2023/06/26 05:01:06;;;;;;;16.37;14.70;;;;;;;27.73;55.50;100912.38;4930583;29;20519;-68
2023/06/26 05:03:36;;;;;;;16.13;14.40;;;;;;;27.68;55.75;100912.50;4940475;29;20576;-67
2023/06/26 05:06:06;;;;;;;16.40;14.93;;;;;;;28.09;53.70;100907.53;4942978;29;20516;-67
2023/06/26 05:08:37;;;;;;;16.13;14.17;;;;;;;27.95;55.42;100906.78;4937128;29;20519;-66
2023/06/26 05:11:06;;;;;;;17.60;16.10;;;;;;;27.60;53.11;100910.47;4943364;29;20446;-67
2023/06/26 05:13:35;;;;;;;14.00;12.80;;;;;;;27.40;56.11;100908.16;4936597;29;20437;-68
2023/06/26 05:16:08;;;;;;;16.77;15.23;;;;;;;27.26;55.83;100910.97;4940106;29;20422;-66
2023/06/26 05:18:37;;;;;;;14.67;13.23;;;;;;;27.23;53.66;100908.81;4937037;29;20460;-67
2023/06/26 05:21:06;;;;;;;14.33;13.03;;;;;;;27.50;52.22;100905.16;4938420;29;20440;-68
2023/06/26 05:23:36;;;;;;;15.47;13.97;;;;;;;28.92;48.97;100907.72;4936233;29;20586;-68
2023/06/26 05:26:05;;;;;;;14.33;13.03;;;;;;;28.92;48.48;100904.94;4944355;29;20436;-68
2023/06/26 05:28:36;;;;;;;19.93;13.60;;;;;;;28.49;50.33;100902.00;4942275;29;20490;-66
2023/06/26 05:31:07;;;;;;;14.87;13.37;;;;;;;27.57;50.03;100900.00;4938278;28;20442;-66
2023/06/26 05:33:38;;;;;;;14.93;13.50;;;;;;;27.50;51.19;100899.59;4938769;29;20522;-67
2023/06/26 05:36:10;;;;;;;14.13;12.83;;;;;;;27.29;51.52;100892.88;4935398;29;20436;-67
2023/06/26 05:38:39;;;;;;;13.70;12.40;;;;;;;26.97;54.47;100897.47;4936081;29;20436;-66
2023/06/26 05:41:09;;;;;;;14.73;13.23;;;;;;;26.70;54.92;100892.75;4933188;29;20424;-68
2023/06/26 05:43:37;;;;;;;14.47;13.10;;;;;;;26.51;55.10;100877.34;4938576;29;20482;-66
2023/06/26 05:46:08;;;;;;;14.03;12.70;;;;;;;26.08;56.19;100874.81;4937702;29;20419;-66
2023/06/26 05:48:37;;;;;;;15.20;13.80;;;;;;;25.86;56.47;100877.44;4935093;29;20869;-66
2023/06/26 05:51:07;;;;;;;14.57;13.27;;;;;;;25.74;57.84;100874.34;4930514;29;20433;-67
2023/06/26 05:53:36;;;;;;;14.77;13.37;;;;;;;25.67;59.87;100873.88;4929999;29;20440;-66
2023/06/26 05:56:06;;;;;;;15.93;14.47;;;;;;;25.65;59.39;100876.16;4938129;29;20863;-66
2023/06/26 05:58:36;;;;;;;17.00;15.20;;;;;;;25.89;56.89;100879.63;4933987;29;20432;-68
2023/06/26 06:01:05;;;;;;;17.53;15.77;;;;;;;25.83;56.97;100872.50;4935474;29;20484;-65
2023/06/26 06:03:35;;;;;;;18.27;13.37;;;;;;;25.72;57.77;100876.56;4930896;29;20472;-66
2023/06/26 06:06:04;;;;;;;16.40;14.83;;;;;;;25.63;57.84;100876.44;4936899;29;20440;-68
2023/06/26 06:08:33;;;;;;;14.93;13.63;;;;;;;25.83;57.11;100866.97;4936676;29;20547;-66
2023/06/26 06:11:02;;;;;;;16.00;14.50;;;;;;;25.91;56.35;100869.03;4933475;29;20464;-68
2023/06/26 06:13:32;;;;;;;14.67;13.47;;;;;;;26.03;55.84;100863.81;4933376;29;20520;-68
2023/06/26 06:16:02;;;;;;;17.00;13.93;;;;;;;26.04;55.05;100859.94;4999255;23;20499;-67
2023/06/26 06:18:31;;;;;;;14.57;13.27;;;;;;;25.89;56.90;100852.72;4940830;29;20981;-68
2023/06/26 06:21:03;;;;;;;14.70;12.73;;;;;;;26.04;55.66;100859.09;4936728;29;20536;-67
2023/06/26 06:23:32;;;;;;;13.67;12.30;;;;;;;26.14;54.98;100861.69;4933937;28;20455;-67
2023/06/26 06:26:01;;;;;;;12.60;11.40;;;;;;;26.21;55.81;100857.41;4938157;29;20444;-67
2023/06/26 06:28:31;;;;;;;12.47;11.27;;;;;;;26.14;56.19;100856.13;4937979;29;20442;-67
2023/06/26 06:31:00;;;;;;;12.80;11.63;;;;;;;26.24;54.89;100867.88;4937418;29;20970;-68
2023/06/26 06:33:29;;;;;;;13.00;10.67;;;;;;;26.27;54.67;100872.00;4940405;28;20531;-66
2023/06/26 06:35:59;;;;;;;11.80;10.70;;;;;;;26.28;54.56;100863.38;4931226;29;20444;-67
2023/06/26 06:38:29;;;;;;;13.70;12.40;;;;;;;26.18;54.50;100858.00;4940578;29;20905;-67
2023/06/26 06:40:59;;;;;;;12.13;10.93;;;;;;;26.28;53.92;100857.81;4936526;29;20443;-68
2023/06/26 06:43:27;;;;;;;11.97;10.90;;;;;;;26.45;53.65;100859.97;4934035;29;20540;-67
2023/06/26 06:45:56;;;;;;;14.90;11.23;;;;;;;26.53;53.09;100841.78;4936423;29;20530;-66
2023/06/26 06:48:25;;;;;;;12.40;11.13;;;;;;;26.80;52.98;100853.66;4931910;29;20436;-67
2023/06/26 06:50:55;;;;;;;11.57;10.40;;;;;;;26.76;52.30;100847.09;4937420;29;20934;-67
2023/06/26 06:53:24;;;;;;;11.73;10.73;;;;;;;26.66;52.19;100846.50;4933015;29;20407;-67
2023/06/26 06:55:54;;;;;;;11.83;10.67;;;;;;;26.74;51.81;100852.13;4936011;29;20528;-68
2023/06/26 06:58:23;;;;;;;10.87;9.97;;;;;;;26.88;51.22;100842.97;4940627;29;20976;-67
2023/06/26 07:00:52;;;;;;;12.70;10.40;;;;;;;27.10;51.03;100846.63;4936755;29;20424;-67
2023/06/26 07:03:22;;;;;;;11.43;10.23;;;;;;;27.15;50.64;100846.50;4937285;29;20460;-67
2023/06/26 07:05:51;;;;;;;9.90;9.00;;;;;;;27.14;50.08;100847.66;4937790;29;20499;-68
2023/06/26 07:08:20;;;;;;;9.40;8.50;;;;;;;27.09;50.75;100844.97;4942720;29;20414;-67
2023/06/26 07:10:49;;;;;;;11.60;10.43;;;;;;;27.27;50.79;100843.16;4940643;28;20444;-67
2023/06/26 07:13:19;;;;;;;11.37;9.13;;;;;;;27.31;49.27;100838.59;4939237;29;20443;-68
2023/06/26 07:15:48;;;;;;;13.50;9.00;;;;;;;27.38;49.72;100840.97;4940064;29;20528;-67
2023/06/26 07:18:17;;;;;;;14.03;9.43;;;;;;;27.57;49.85;100834.09;4936224;29;20903;-68
2023/06/26 07:20:46;;;;;;;9.70;8.80;;;;;;;27.61;48.22;100840.66;4940833;29;20460;-71
2023/06/26 07:23:15;;;;;;;10.80;9.70;;;;;;;27.73;48.17;100844.81;4931247;29;20407;-70
2023/06/26 07:25:44;;;;;;;13.30;7.77;;;;;;;27.92;48.01;100853.78;4942071;29;20440;-70
2023/06/26 07:28:14;;;;;;;10.33;9.43;;;;;;;27.93;47.23;100844.28;4939014;29;20448;-70
2023/06/26 07:30:44;;;;;;;7.53;6.93;;;;;;;27.93;46.53;100842.31;4940034;29;20532;-70
2023/06/26 07:33:13;;;;;;;12.67;8.93;;;;;;;27.95;46.40;100834.47;4942406;29;20803;-70
2023/06/26 07:35:42;;;;;;;12.40;9.40;;;;;;;28.16;46.48;100837.56;4938369;29;20440;-70
2023/06/26 07:38:11;;;;;;;9.23;7.70;;;;;;;28.38;46.67;100831.06;4937268;29;20842;-70
2023/06/26 07:40:40;;;;;;;8.43;7.63;;;;;;;28.47;46.21;100823.56;4939086;29;20451;-71
2023/06/26 07:43:11;;;;;;;8.80;8.00;;;;;;;28.62;46.53;100822.28;4939271;29;20436;-71
2023/06/26 07:45:40;;;;;;;8.63;7.80;;;;;;;28.67;45.45;100831.31;4940482;29;20560;-72
2023/06/26 07:48:11;;;;;;;8.30;7.50;;;;;;;28.64;44.45;100828.38;4940067;29;20984;-71
2023/06/26 07:50:40;;;;;;;8.70;8.00;;;;;;;28.59;44.54;100817.38;4937445;29;20404;-71
2023/06/26 07:53:09;;;;;;;9.93;8.93;;;;;;;28.58;45.56;100819.34;4935871;29;20496;-71
2023/06/26 07:55:38;;;;;;;8.27;7.33;;;;;;;28.52;44.42;100812.28;4940275;29;20519;-71
2023/06/26 07:58:08;;;;;;;8.40;7.40;;;;;;;28.57;44.28;100811.31;4935952;29;20526;-71
2023/06/26 08:00:37;;;;;;;9.73;8.83;;;;;;;28.64;45.33;100812.47;4937282;29;20433;-72
2023/06/26 08:03:06;;;;;;;8.23;7.50;;;;;;;28.61;44.16;100813.13;4943899;29;21157;-70
2023/06/26 08:05:47;;;;;;;7.27;6.57;;;;;;;28.63;44.54;100805.28;4936480;29;20475;-71
2023/06/26 08:08:16;;;;;;;7.40;6.53;;;;;;;28.72;43.59;100814.47;4942391;29;20496;-71
2023/06/26 08:10:45;;;;;;;7.73;7.03;;;;;;;28.78;43.89;100807.63;4935543;29;21019;-71
2023/06/26 08:13:14;;;;;;;8.80;8.00;;;;;;;29.08;43.33;100805.00;4934234;29;21003;-72
2023/06/26 08:15:43;;;;;;;9.83;8.07;;;;;;;29.00;42.85;100798.28;4936208;29;20908;-71
2023/06/26 08:18:13;;;;;;;8.60;7.67;;;;;;;29.05;43.59;100794.53;4941495;29;20464;-71
2023/06/26 08:20:42;;;;;;;9.10;8.30;;;;;;;28.98;43.41;100799.75;4938594;29;20432;-71
2023/06/26 08:23:12;;;;;;;8.97;7.23;;;;;;;29.25;43.49;100803.03;4939609;29;20471;-71
2023/06/26 08:25:41;;;;;;;14.73;8.63;;;;;;;29.38;42.09;100798.47;4938276;29;20464;-70
2023/06/26 08:28:10;;;;;;;8.57;7.77;;;;;;;29.37;42.76;100802.41;4939056;29;20479;-71
2023/06/26 08:30:39;;;;;;;8.37;7.50;;;;;;;29.26;43.25;100803.84;4936867;29;20523;-72
2023/06/26 08:33:12;;;;;;;11.30;7.50;;;;;;;29.51;42.10;100802.22;4935794;28;20864;-71
2023/06/26 08:35:41;;;;;;;9.63;7.17;;;;;;;29.68;40.03;100791.81;4936920;29;20425;-71
2023/06/26 08:38:11;;;;;;;6.33;5.73;;;;;;;29.64;39.79;100796.44;4940885;28;20533;-71
2023/06/26 08:40:40;;;;;;;8.30;7.60;;;;;;;29.71;40.79;100781.97;4937663;29;20460;-71
2023/06/26 08:43:10;;;;;;;6.93;6.33;;;;;;;29.72;40.71;100792.81;4939493;29;20440;-71
2023/06/26 08:45:39;;;;;;;7.40;6.70;;;;;;;29.84;40.84;100783.72;4936013;29;20469;-71
2023/06/26 08:48:10;;;;;;;7.80;6.97;;;;;;;29.95;39.69;100782.25;4935997;29;20560;-70
2023/06/26 08:50:40;;;;;;;7.10;5.90;;;;;;;29.99;38.99;100776.81;4940148;29;20524;-70
2023/06/26 08:53:21;;;;;;;7.10;5.70;;;;;;;29.74;39.47;100784.91;4936510;29;20437;-71
2023/06/26 08:55:53;;;;;;;7.83;6.30;;;;;;;29.68;39.36;100780.66;4937343;29;20915;-71
2023/06/26 08:58:22;;;;;;;7.60;6.87;;;;;;;29.93;39.76;100775.34;4940537;29;20832;-70
2023/06/26 09:00:51;;;;;;;8.70;6.90;;;;;;;30.06;38.84;100782.69;4935262;29;20440;-70
2023/06/26 09:03:20;;;;;;;7.00;6.30;;;;;;;29.97;38.47;100767.94;4935874;29;20444;-71
2023/06/26 09:05:50;;;;;;;7.10;6.30;;;;;;;29.94;38.97;100763.88;4937448;29;20550;-71
2023/06/26 09:08:20;;;;;;;6.50;5.90;;;;;;;29.91;39.22;100766.53;4939658;29;20428;-70
2023/06/26 09:10:49;;;;;;;6.83;6.13;;;;;;;29.93;38.66;100765.00;4936007;29;20500;-72
2023/06/26 09:13:19;;;;;;;6.03;5.53;;;;;;;30.02;38.38;100762.19;4935809;29;20539;-69
2023/06/26 09:15:58;;;;;;;7.57;6.80;;;;;;;30.30;38.87;100760.56;4939687;29;20969;-71
2023/06/26 09:18:28;;;;;;;13.10;6.83;;;;;;;29.98;38.63;100762.03;4940360;29;20556;-71
2023/06/26 09:20:57;;;;;;;8.03;6.00;;;;;;;30.21;38.95;100754.19;4940047;28;20468;-70
2023/06/26 09:23:28;;;;;;;6.80;6.20;;;;;;;30.40;37.73;100751.81;4938351;29;20437;-70
2023/06/26 09:25:57;;;;;;;8.10;6.20;;;;;;;30.31;38.41;100753.00;4936401;29;20488;-72
2023/06/26 09:28:26;;;;;;;6.70;6.10;;;;;;;30.07;38.03;100756.41;4941095;29;20941;-71
2023/06/26 09:30:56;;;;;;;6.47;5.87;;;;;;;30.26;38.32;100751.22;4935138;29;20433;-72
2023/06/26 09:33:25;;;;;;;6.57;5.87;;;;;;;30.42;37.98;100741.09;4935074;29;20494;-71
2023/06/26 09:35:54;;;;;;;7.23;6.53;;;;;;;30.56;39.08;100752.03;4936743;29;20459;-70
2023/06/26 09:38:23;;;;;;;7.03;6.30;;;;;;;30.49;36.57;100744.22;4939992;29;20472;-71
2023/06/26 09:40:53;;;;;;;7.47;5.80;;;;;;;30.58;37.44;100744.97;4936772;29;20439;-71
2023/06/26 09:43:23;;;;;;;6.57;5.97;;;;;;;30.69;36.84;100730.59;4934496;29;20461;-71
2023/06/26 09:45:53;;;;;;;6.67;6.17;;;;;;;30.87;36.47;100734.88;4935655;29;20511;-71
2023/06/26 09:48:23;;;;;;;6.13;5.60;;;;;;;31.09;36.35;100731.72;4938368;29;20516;-71
2023/06/26 09:50:52;;;;;;;6.73;6.13;;;;;;;31.06;36.73;100736.03;4936832;29;20798;-71
2023/06/26 09:53:29;;;;;;;5.90;5.40;;;;;;;31.09;37.18;100731.72;4951842;29;20826;-70
2023/06/26 09:55:59;;;;;;;6.73;6.00;;;;;;;30.86;36.00;100725.66;4946594;29;20437;-71
2023/06/26 09:58:29;;;;;;;6.10;5.60;;;;;;;30.61;35.47;100721.13;4951995;28;20507;-70
2023/06/26 10:00:58;;;;;;;8.80;5.37;;;;;;;30.86;36.15;100719.25;4947187;29;20439;-71
2023/06/26 10:03:27;;;;;;;5.30;4.73;;;;;;;31.05;35.42;100723.22;4935481;29;20468;-71
2023/06/26 10:05:57;;;;;;;4.93;4.53;;;;;;;31.12;35.21;100716.25;4943720;29;20865;-71
2023/06/26 10:08:26;;;;;;;5.90;5.30;;;;;;;31.13;35.46;100715.91;4941455;29;20471;-71
2023/06/26 10:10:57;;;;;;;6.07;5.47;;;;;;;31.28;35.39;100711.63;4942009;29;20435;-72
2023/06/26 10:13:35;;;;;;;5.80;4.93;;;;;;;31.23;35.66;100712.66;4934991;29;20441;-72
2023/06/26 10:16:08;;;;;;;5.87;5.37;;;;;;;31.23;36.53;100712.66;4933211;29;20482;-70
2023/06/26 10:18:40;;;;;;;6.53;5.93;;;;;;;31.20;35.86;100695.78;4933318;29;20431;-70
2023/06/26 10:21:12;;;;;;;6.33;5.80;;;;;;;31.34;36.27;100696.28;4938185;29;20428;-72
2023/06/26 10:23:44;;;;;;;5.80;5.30;;;;;;;31.35;35.57;100693.16;4933923;29;20441;-70
2023/06/26 10:26:15;;;;;;;5.90;5.40;;;;;;;31.47;35.47;100690.34;4933657;29;20476;-71
2023/06/26 10:28:49;;;;;;;7.83;5.97;;;;;;;31.73;34.93;100694.84;4936554;29;20480;-70
2023/06/26 10:31:20;;;;;;;5.43;4.93;;;;;;;31.88;35.58;100677.38;4937853;29;20438;-71
2023/06/26 10:33:50;;;;;;;5.50;5.00;;;;;;;31.64;35.22;100683.78;4937910;28;20943;-71
2023/06/26 10:36:21;;;;;;;5.60;5.10;;;;;;;31.75;36.35;100678.53;4941177;29;20559;-72
2023/06/26 10:38:51;;;;;;;7.30;6.40;;;;;;;31.95;36.44;100677.59;4941606;29;20507;-71
2023/06/26 10:41:24;;;;;;;6.10;5.50;;;;;;;32.10;36.58;100671.28;4936612;29;21034;-71
2023/06/26 10:44:10;;;;;;;6.53;5.80;;;;;;;31.94;36.57;100670.38;4940003;29;20433;-69
2023/06/26 10:46:52;;;;;;;7.10;6.50;;;;;;;31.87;35.57;100670.13;4936669;29;20564;-70
2023/06/26 10:49:25;;;;;;;6.30;5.70;;;;;;;32.04;35.51;100658.69;4937038;29;20504;-70
2023/06/26 10:51:57;;;;;;;5.70;5.20;;;;;;;31.95;35.22;100660.81;4938163;29;20434;-72
2023/06/26 10:54:33;;;;;;;7.87;6.63;;;;;;;32.00;34.93;100668.94;4936736;29;20438;-70
2023/06/26 10:57:03;;;;;;;7.67;5.93;;;;;;;32.04;34.87;100667.09;4939093;29;20489;-70
2023/06/26 10:59:34;;;;;;;5.90;5.40;;;;;;;32.23;35.98;100661.72;4938253;29;20434;-70
2023/06/26 11:02:05;;;;;;;8.20;5.50;;;;;;;31.90;35.53;100652.66;4939051;29;20553;-70
2023/06/26 11:04:41;;;;;;;7.37;6.27;;;;;;;32.15;35.69;100659.84;4940326;29;20436;-72
2023/06/26 11:07:18;;;;;;;6.80;6.20;;;;;;;32.31;34.83;100648.75;4944073;29;20477;-71
2023/06/26 11:09:58;;;;;;;6.93;6.33;;;;;;;32.48;35.17;100650.47;4945611;29;20435;-71
2023/06/26 11:12:37;;;;;;;7.63;6.90;;;;;;;32.72;34.96;100650.41;4944001;29;20451;-71
2023/06/26 11:15:12;;;;;;;6.10;5.50;;;;;;;32.49;34.72;100638.88;4940517;29;20457;-70
2023/06/26 11:17:44;;;;;;;6.60;6.00;;;;;;;32.82;35.07;100641.47;4936706;29;20471;-70
2023/06/26 11:20:15;;;;;;;6.50;5.90;;;;;;;32.87;34.14;100635.63;4938419;29;20801;-72
2023/06/26 11:22:44;;;;;;;6.43;5.83;;;;;;;32.98;33.93;100635.88;4936087;29;20425;-71
2023/06/26 11:25:13;;;;;;;7.70;6.07;;;;;;;33.03;33.31;100628.03;4941219;29;20460;-72